»·PEaware :: N182HL KSNA-L35

N182HL :: KSNA-L35

FLIGHT INFORMATION

Flight Status: Arrived
Operator: Privately registered:
United States
More flights under this callsign
Pilot: Adam S. (8156)
Aircraft: CESSNA 182 SKYLANE
(C182)
More flights by this aircraft type
Origin: KSNA John Wayne-Orange Co
United States
Destination: L35 Big Bear City
United States
More flights between these airports :: More routes between these airports
Route: +
File this flight plan on PilotEdge
Remarks:
Altitude:
(Current/Filed)
9,500ft
Speed:
(Current/Filed)
135kts
Departed: 10-Jan-16 06:37 PM
Arrived: 10-Jan-16 07:06 PM
Distance/Time
Traveled:
62nm/0:29
Distance/Time
To Go:
Arrived

Flight Plot

Page will automatically refresh every two minutes.


Map Options




Map Legend


Flown Route
Filed Route
Departure Airport
Arrival Airport
Navaid (VOR, NDB)
Fix

Horizontal Profiles

Position Reports

Time Latitude Longitude Heading Altitude Ground
Speed
10-Jan-16 18:00 33.669311 -117.875056 9 59ft 0kts
10-Jan-16 18:01 33.669311 -117.875056 9 59ft 0kts
10-Jan-16 18:05 33.669342 -117.875102 16 59ft 0kts
10-Jan-16 18:06 33.669342 -117.875102 16 59ft 0kts
10-Jan-16 18:07 33.669342 -117.875102 16 59ft 0kts
10-Jan-16 18:08 33.669342 -117.875102 16 59ft 0kts
10-Jan-16 18:09 33.669342 -117.875102 16 59ft 0kts
10-Jan-16 18:10 33.669342 -117.875102 16 59ft 0kts
10-Jan-16 18:11 33.669342 -117.875102 16 59ft 0kts
10-Jan-16 18:12 33.669342 -117.875102 16 59ft 0kts
10-Jan-16 18:13 33.669342 -117.875102 16 59ft 0kts
10-Jan-16 18:14 33.669342 -117.875102 16 59ft 0kts
10-Jan-16 18:15 33.669342 -117.875102 16 59ft 0kts
10-Jan-16 18:16 33.669342 -117.875102 16 59ft 0kts
10-Jan-16 18:17 33.669342 -117.875102 16 59ft 0kts
10-Jan-16 18:18 33.669342 -117.875102 16 59ft 0kts
10-Jan-16 18:19 33.671137 -117.873535 35 59ft 27kts
10-Jan-16 18:25 33.669886 -117.874421 68 59ft 11kts
10-Jan-16 18:26 33.672398 -117.872410 19 59ft 10kts
10-Jan-16 18:27 33.675512 -117.870482 24 59ft 8kts
10-Jan-16 18:28 33.677859 -117.869047 25 59ft 12kts
10-Jan-16 18:29 33.678724 -117.868478 30 59ft 19kts
10-Jan-16 18:30 33.681215 -117.866655 80 59ft 0kts
10-Jan-16 18:31 33.680745 -117.865839 168 59ft 15kts
10-Jan-16 18:32 33.661134 -117.882068 271 1115ft 89kts
10-Jan-16 18:33 33.680674 -117.895160 337 1968ft 113kts
10-Jan-16 18:34 33.711011 -117.905166 342 2997ft 123kts
10-Jan-16 18:35 33.746757 -117.915254 342 3617ft 130kts
10-Jan-16 18:36 33.781741 -117.914031 28 4411ft 136kts
10-Jan-16 18:37 33.804381 -117.878034 49 5189ft 138kts
10-Jan-16 18:38 33.824871 -117.841262 49 5958ft 136kts
10-Jan-16 18:39 33.844730 -117.804038 49 6735ft 134kts
10-Jan-16 18:40 33.862467 -117.764343 57 7527ft 136kts
10-Jan-16 18:41 33.878695 -117.723614 52 8319ft 134kts
10-Jan-16 18:42 33.895888 -117.683959 50 9109ft 133kts
10-Jan-16 18:43 33.914222 -117.643031 50 9491ft 152kts
10-Jan-16 18:44 33.935224 -117.596062 51 9489ft 161kts
10-Jan-16 18:45 33.956690 -117.548059 51 9485ft 162kts
10-Jan-16 18:46 33.977942 -117.500534 51 9482ft 161kts
10-Jan-16 18:47 33.999180 -117.453004 51 9479ft 160kts
10-Jan-16 18:48 34.020152 -117.406013 51 9476ft 159kts
10-Jan-16 18:49 34.041100 -117.359017 51 9473ft 159kts
10-Jan-16 18:50 34.061698 -117.313248 51 9468ft 159kts
10-Jan-16 18:51 34.082830 -117.265999 51 9467ft 159kts
10-Jan-16 18:52 34.103314 -117.219942 51 9472ft 160kts
10-Jan-16 18:53 34.124343 -117.172555 51 9474ft 161kts
10-Jan-16 18:54 34.145401 -117.125004 51 9474ft 161kts
10-Jan-16 18:55 34.166386 -117.077556 51 9474ft 161kts
10-Jan-16 18:56 34.187499 -117.029754 51 9474ft 161kts
10-Jan-16 18:57 34.208602 -116.981907 51 9474ft 161kts
10-Jan-16 18:58 34.229684 -116.934044 51 9474ft 161kts
10-Jan-16 18:59 34.250092 -116.904823 48 8744ft 83kts
10-Jan-16 19:00 34.259775 -116.879314 42 7658ft 87kts
10-Jan-16 19:01 34.263877 -116.850642 57 6751ft 39kts
10-Jan-16 19:02 34.264542 -116.850038 330 6751ft 0kts
10-Jan-16 19:03 34.264542 -116.850038 330 6751ft 0kts
10-Jan-16 19:04 34.264542 -116.850038 330 6751ft 0kts
10-Jan-16 19:05 34.264542 -116.850038 330 6751ft 0kts
10-Jan-16 19:06 34.264542 -116.850038 330 6751ft 0kts
10-Jan-16 19:07 34.264542 -116.850038 330 6751ft 0kts
10-Jan-16 19:08 34.264542 -116.850038 330 6751ft 0kts
10-Jan-16 19:09 34.264542 -116.850038 330 6751ft 0kts
10-Jan-16 19:10 34.264542 -116.850038 330 6751ft 0kts
10-Jan-16 19:11 34.264542 -116.850038 330 6751ft 0kts
10-Jan-16 19:12 34.264542 -116.850038 330 6751ft 0kts
10-Jan-16 19:13 34.264542 -116.850038 330 6751ft 0kts

Navigation Log

Ident Type
Flight plan parsing failed, navigation log unavailable